createdAt,value
2023-04-29T00:00:30.165Z,101780.69
2023-04-29T00:02:36.073Z,101785.06
2023-04-29T00:04:41.824Z,101777.22
2023-04-29T00:06:52.844Z,101791.22
2023-04-29T00:08:57.882Z,101788.59
2023-04-29T00:11:04.319Z,101789.47
2023-04-29T00:13:09.372Z,101792.06
2023-04-29T00:15:14.746Z,101787.75
2023-04-29T00:17:20.950Z,101793.03
2023-04-29T00:19:25.976Z,101784.34
2023-04-29T00:21:31.119Z,101794.81
2023-04-29T00:23:39.402Z,101794.00
2023-04-29T00:25:44.550Z,101794.91
2023-04-29T00:27:49.899Z,101798.44
2023-04-29T00:29:55.055Z,101801.84
2023-04-29T00:32:00.393Z,101804.53
2023-04-29T00:34:06.224Z,101806.34
2023-04-29T00:36:11.370Z,101802.00
2023-04-29T00:38:16.682Z,101809.81
2023-04-29T00:40:24.635Z,101811.56
2023-04-29T00:42:30.471Z,101812.53
2023-04-29T00:44:38.257Z,101819.59
2023-04-29T00:46:43.466Z,101816.09
2023-04-29T00:48:48.755Z,101808.22
2023-04-29T00:50:54.597Z,101810.84
2023-04-29T00:52:59.690Z,101816.97
2023-04-29T00:55:05.859Z,101822.22
2023-04-29T00:57:13.791Z,101827.47
2023-04-29T00:59:21.921Z,101827.47
2023-04-29T01:01:27.488Z,101830.13
2023-04-29T01:03:33.541Z,101826.66
2023-04-29T01:05:39.159Z,101830.97
2023-04-29T01:07:55.606Z,101834.50
2023-04-29T01:10:06.932Z,101835.31
2023-04-29T01:12:23.932Z,101842.34
2023-04-29T01:14:32.450Z,101839.75
2023-04-29T01:16:44.030Z,101837.16
2023-04-29T01:18:54.325Z,101834.56
2023-04-29T01:21:01.037Z,101841.50
2023-04-29T01:23:05.910Z,101839.78
2023-04-29T01:25:13.871Z,101838.03
2023-04-29T01:27:30.527Z,101836.28
2023-04-29T01:29:43.614Z,101837.97
2023-04-29T01:32:01.385Z,101843.25
2023-04-29T01:34:12.525Z,101852.88
2023-04-29T01:36:29.252Z,101850.22
2023-04-29T01:38:40.123Z,101850.22
2023-04-29T01:40:57.038Z,101848.50
2023-04-29T01:43:05.738Z,101849.38
2023-04-29T01:45:13.830Z,101844.94
2023-04-29T01:47:22.192Z,101848.44
2023-04-29T01:49:27.997Z,101851.97
2023-04-29T01:51:34.438Z,101853.66
2023-04-29T01:53:40.782Z,101855.41
2023-04-29T01:55:49.862Z,101851.91
2023-04-29T01:57:54.888Z,101851.03
2023-04-29T02:00:02.920Z,101852.72
2023-04-29T02:02:10.571Z,101851.88
2023-04-29T02:04:15.638Z,101858.81
2023-04-29T02:06:20.843Z,101858.78
2023-04-29T02:08:26.080Z,101856.16
2023-04-29T02:10:31.383Z,101865.78
2023-04-29T02:12:39.018Z,101865.72
2023-04-29T02:14:44.067Z,101863.09
2023-04-29T02:16:52.523Z,101870.94
2023-04-29T02:18:57.586Z,101865.72
2023-04-29T02:21:04.391Z,101873.50
2023-04-29T02:23:09.477Z,101874.38
2023-04-29T02:25:15.126Z,101870.91
2023-04-29T02:27:20.277Z,101882.19
2023-04-29T02:29:30.146Z,101883.88
2023-04-29T02:31:35.792Z,101876.03
2023-04-29T02:33:42.736Z,101874.25
2023-04-29T02:35:49.970Z,101884.78
2023-04-29T02:37:55.037Z,101893.47
2023-04-29T02:40:00.113Z,101890.88
2023-04-29T02:42:05.932Z,101896.13
2023-04-29T02:44:11.277Z,101898.66
2023-04-29T02:46:21.392Z,101903.06
2023-04-29T02:48:27.584Z,101899.53
2023-04-29T02:50:33.092Z,101903.06
2023-04-29T02:52:39.815Z,101903.91
2023-04-29T02:54:44.970Z,101901.28
2023-04-29T02:56:50.210Z,101906.53
2023-04-29T02:58:55.260Z,101906.50
2023-04-29T03:01:00.313Z,101910.00
2023-04-29T03:03:08.758Z,101916.91
2023-04-29T03:05:14.272Z,101925.66
2023-04-29T03:07:19.945Z,101923.09
2023-04-29T03:09:24.968Z,101918.69
2023-04-29T03:11:29.926Z,101919.56
2023-04-29T03:13:35.886Z,101923.03
2023-04-29T03:15:41.330Z,101916.03
2023-04-29T03:17:46.711Z,101923.91
2023-04-29T03:19:54.826Z,101924.78
2023-04-29T03:22:00.000Z,101922.19
2023-04-29T03:24:06.030Z,101930.06
2023-04-29T03:26:11.911Z,101925.66
2023-04-29T03:28:16.968Z,101936.16
2023-04-29T03:30:24.756Z,101930.00
2023-04-29T03:32:29.920Z,101923.91
2023-04-29T03:34:35.698Z,101931.75
2023-04-29T03:36:43.447Z,101930.00
2023-04-29T03:38:48.446Z,101930.00
2023-04-29T03:40:53.831Z,101931.72
2023-04-29T03:42:58.817Z,101934.34
2023-04-29T03:45:04.548Z,101936.06
2023-04-29T03:47:09.838Z,101934.31
2023-04-29T03:49:14.844Z,101943.91
2023-04-29T03:51:19.946Z,101943.00
2023-04-29T03:53:27.537Z,101945.63
2023-04-29T03:55:32.576Z,101943.84
2023-04-29T03:57:42.455Z,101943.00
2023-04-29T03:59:50.778Z,101954.34
2023-04-29T04:01:56.147Z,101953.47
2023-04-29T04:04:01.387Z,101945.59
2023-04-29T04:06:06.911Z,101946.44
2023-04-29T04:08:11.976Z,101941.19
2023-04-29T04:10:19.992Z,101942.09
2023-04-29T04:12:24.922Z,101948.22
2023-04-29T04:14:29.849Z,101952.56
2023-04-29T04:16:34.844Z,101953.38
2023-04-29T04:18:39.937Z,101958.66
2023-04-29T04:20:44.893Z,101962.13
2023-04-29T04:22:49.928Z,101966.47
2023-04-29T04:24:54.965Z,101965.56
2023-04-29T04:27:02.622Z,101969.94
2023-04-29T04:29:08.694Z,101970.81
2023-04-29T04:31:15.084Z,101974.22
2023-04-29T04:33:20.292Z,101974.22
2023-04-29T04:35:25.393Z,101973.38
2023-04-29T04:37:30.421Z,101982.84
2023-04-29T04:39:35.874Z,101985.56
2023-04-29T04:41:41.942Z,101984.72
2023-04-29T04:43:51.932Z,101983.84
2023-04-29T04:45:57.572Z,101989.03
2023-04-29T04:48:02.828Z,101999.47
2023-04-29T04:50:09.365Z,101996.91
2023-04-29T04:52:14.809Z,102007.38
2023-04-29T04:54:20.108Z,102002.09
2023-04-29T04:56:25.238Z,102010.88
2023-04-29T04:58:31.744Z,102010.84
2023-04-29T05:00:39.454Z,102016.91
2023-04-29T05:02:44.887Z,102026.53
2023-04-29T05:04:50.184Z,102021.25
2023-04-29T05:06:55.140Z,102028.25
2023-04-29T05:09:00.162Z,102029.97
2023-04-29T05:11:06.107Z,102029.97
2023-04-29T05:13:11.062Z,102035.22
2023-04-29T05:15:19.361Z,102030.88
2023-04-29T05:17:27.075Z,102039.56
2023-04-29T05:19:32.258Z,102043.88
2023-04-29T05:21:37.655Z,102044.78
2023-04-29T05:23:43.663Z,102044.72
2023-04-29T05:25:48.908Z,102039.44
2023-04-29T05:27:53.939Z,102041.09
2023-04-29T05:29:59.167Z,102049.88
2023-04-29T05:32:04.511Z,102044.50
2023-04-29T05:34:12.402Z,102053.34
2023-04-29T05:36:20.231Z,102051.47
2023-04-29T05:38:29.322Z,102056.78
2023-04-29T05:40:34.540Z,102057.53
2023-04-29T05:42:39.887Z,102069.78
2023-04-29T05:44:45.123Z,102065.28
2023-04-29T05:46:52.264Z,102068.75
2023-04-29T05:48:57.487Z,102067.78
2023-04-29T05:51:06.606Z,102074.00
2023-04-29T05:53:11.557Z,102069.59
2023-04-29T05:55:16.563Z,102077.47
2023-04-29T05:57:24.632Z,102079.19
2023-04-29T05:59:29.511Z,102082.66
2023-04-29T06:01:34.818Z,102090.47
2023-04-29T06:03:40.213Z,102093.16
2023-04-29T06:05:45.916Z,102097.50
2023-04-29T06:07:53.714Z,102104.44
2023-04-29T06:09:59.949Z,102100.88
2023-04-29T06:12:06.272Z,102101.66
2023-04-29T06:14:11.264Z,102109.59
2023-04-29T06:16:16.313Z,102116.66
2023-04-29T06:18:22.675Z,102108.59
2023-04-29T06:20:28.203Z,102107.72
2023-04-29T06:22:33.358Z,102109.41
2023-04-29T06:24:41.467Z,102113.81
2023-04-29T06:26:46.987Z,102120.72
2023-04-29T06:28:55.245Z,102115.47
2023-04-29T06:31:00.712Z,102119.63
2023-04-29T06:33:06.446Z,102127.19
2023-04-29T06:35:12.188Z,102121.03
2023-04-29T06:37:18.907Z,102119.19
2023-04-29T06:39:23.893Z,102125.88
2023-04-29T06:41:32.300Z,102130.31
2023-04-29T06:43:37.516Z,102134.38
2023-04-29T06:45:42.863Z,102142.28
2023-04-29T06:47:48.353Z,102142.88
2023-04-29T06:49:53.925Z,102146.25
2023-04-29T06:51:59.938Z,102150.56
2023-04-29T06:54:05.665Z,102144.72
2023-04-29T06:56:16.690Z,102144.13
2023-04-29T06:58:28.592Z,102156.13
2023-04-29T07:00:34.711Z,102159.50
2023-04-29T07:02:39.924Z,102166.00
2023-04-29T07:04:45.270Z,102171.91
2023-04-29T07:06:51.410Z,102176.28
2023-04-29T07:08:57.148Z,102175.63
2023-04-29T07:11:02.248Z,102179.94
2023-04-29T07:13:07.231Z,102182.13
2023-04-29T07:15:15.364Z,102186.47
2023-04-29T07:17:21.013Z,102182.53
2023-04-29T07:19:26.335Z,102191.25
2023-04-29T07:21:31.794Z,102189.56
2023-04-29T07:23:36.789Z,102192.03
2023-04-29T07:25:41.758Z,102196.94
2023-04-29T07:27:46.740Z,102193.31
2023-04-29T07:29:54.634Z,102191.41
2023-04-29T07:32:02.332Z,102198.22
2023-04-29T07:34:10.440Z,102203.03
2023-04-29T07:36:15.500Z,102203.50
2023-04-29T07:38:21.744Z,102201.91
2023-04-29T07:40:26.973Z,102204.09
2023-04-29T07:42:32.019Z,102204.47
2023-04-29T07:44:37.142Z,102205.81
2023-04-29T07:46:42.147Z,102200.09
2023-04-29T07:48:49.912Z,102195.03
2023-04-29T07:50:55.002Z,102205.97
2023-04-29T07:53:02.584Z,102204.63
2023-04-29T07:55:08.639Z,102209.59
2023-04-29T07:57:13.623Z,102209.38
2023-04-29T07:59:21.626Z,102210.91
2023-04-29T08:01:26.598Z,102210.19
2023-04-29T08:03:31.673Z,102204.94
2023-04-29T08:05:40.119Z,102207.97
2023-04-29T08:07:45.283Z,102207.78
2023-04-29T08:09:50.333Z,102202.13
2023-04-29T08:11:55.510Z,102213.44
2023-04-29T08:14:00.674Z,102217.09
2023-04-29T08:16:05.860Z,102214.38
2023-04-29T08:18:11.179Z,102213.84
2023-04-29T08:20:16.654Z,102214.28
2023-04-29T08:22:24.503Z,102220.50
2023-04-29T08:24:29.937Z,102222.31
2023-04-29T08:26:34.986Z,102224.09
2023-04-29T08:28:43.775Z,102236.16
2023-04-29T08:30:50.986Z,102236.38
2023-04-29T08:32:56.080Z,102242.22
2023-04-29T08:35:03.116Z,102235.59
2023-04-29T08:37:08.383Z,102234.75
2023-04-29T08:39:16.082Z,102245.78
2023-04-29T08:41:28.554Z,102241.25
2023-04-29T08:43:34.910Z,102241.91
2023-04-29T08:45:40.779Z,102239.53
2023-04-29T08:47:46.623Z,102242.75
2023-04-29T08:49:54.527Z,102247.56
2023-04-29T08:51:59.608Z,102245.72
2023-04-29T08:54:04.632Z,102245.78
2023-04-29T08:56:20.869Z,102244.00
2023-04-29T08:58:32.908Z,102246.28
2023-04-29T09:00:39.161Z,102253.94
2023-04-29T09:02:48.681Z,102244.31
2023-04-29T09:05:04.071Z,102244.41
2023-04-29T09:07:10.925Z,102249.31
2023-04-29T09:09:20.833Z,102247.75
2023-04-29T09:11:30.419Z,102248.38
2023-04-29T09:13:36.599Z,102242.53
2023-04-29T09:15:43.084Z,102242.00
2023-04-29T09:17:49.657Z,102249.66
2023-04-29T09:19:57.219Z,102246.50
2023-04-29T09:22:03.391Z,102246.09
2023-04-29T09:24:08.488Z,102248.78
2023-04-29T09:26:13.597Z,102241.63
2023-04-29T09:28:21.232Z,102252.09
2023-04-29T09:30:27.149Z,102250.69
2023-04-29T09:32:32.300Z,102264.13
2023-04-29T09:34:41.106Z,102260.72
2023-04-29T09:36:48.396Z,102253.88
2023-04-29T09:38:58.482Z,102258.47
2023-04-29T09:41:16.028Z,102255.06
2023-04-29T09:43:24.243Z,102258.91
2023-04-29T09:45:39.546Z,102266.34
2023-04-29T09:47:45.107Z,102255.06
2023-04-29T09:49:50.298Z,102265.19
2023-04-29T09:51:59.989Z,102266.56
2023-04-29T09:54:23.083Z,102266.47
2023-04-29T09:56:31.029Z,102264.84
2023-04-29T09:58:40.725Z,102276.13
2023-04-29T10:00:45.760Z,102269.72
2023-04-29T10:02:54.957Z,102270.41
2023-04-29T10:05:01.694Z,102277.47
2023-04-29T10:07:07.782Z,102280.63
2023-04-29T10:09:16.357Z,102283.91
2023-04-29T10:11:21.929Z,102281.75
2023-04-29T10:13:28.963Z,102284.19
2023-04-29T10:15:43.229Z,102288.03
2023-04-29T10:17:52.493Z,102283.69
2023-04-29T10:20:06.455Z,102293.28
2023-04-29T10:22:20.094Z,102288.47
2023-04-29T10:24:26.959Z,102299.56
2023-04-29T10:26:32.926Z,102295.75
2023-04-29T10:28:40.703Z,102287.59
2023-04-29T10:30:50.749Z,102291.59
2023-04-29T10:32:57.888Z,102287.25
2023-04-29T10:35:06.437Z,102275.56
2023-04-29T10:37:12.903Z,102282.41
2023-04-29T10:39:27.259Z,102279.66
2023-04-29T10:41:39.240Z,102282.06
2023-04-29T10:43:44.575Z,102283.00
2023-04-29T10:45:53.948Z,102279.53
2023-04-29T10:48:15.168Z,102278.47
2023-04-29T10:50:22.222Z,102281.06
2023-04-29T10:52:27.428Z,102270.72
2023-04-29T10:54:32.403Z,102275.38
2023-04-29T10:56:45.654Z,102271.97
2023-04-29T10:58:50.743Z,102275.41
2023-04-29T11:00:58.189Z,102273.56
2023-04-29T11:03:05.452Z,102285.31
2023-04-29T11:05:12.906Z,102272.78
2023-04-29T11:07:32.222Z,102280.19
2023-04-29T11:09:39.755Z,102279.19
2023-04-29T11:11:46.710Z,102281.44
2023-04-29T11:13:55.767Z,102280.34
2023-04-29T11:16:10.979Z,102284.81
2023-04-29T11:18:16.643Z,102278.88
2023-04-29T11:20:24.849Z,102282.16
2023-04-29T11:22:31.055Z,102282.75
2023-04-29T11:24:37.933Z,102286.31
2023-04-29T11:26:43.079Z,102288.34
2023-04-29T11:28:52.123Z,102281.97
2023-04-29T11:30:57.327Z,102284.25
2023-04-29T11:33:05.436Z,102280.69
2023-04-29T11:35:12.431Z,102290.81
2023-04-29T11:37:27.433Z,102280.47
2023-04-29T11:39:32.436Z,102287.06
2023-04-29T11:41:40.302Z,102283.41
2023-04-29T11:43:45.571Z,102280.63
2023-04-29T11:45:50.877Z,102275.03
2023-04-29T11:47:57.428Z,102286.00
2023-04-29T11:50:11.077Z,102283.84
2023-04-29T11:52:16.646Z,102282.56
2023-04-29T11:54:24.943Z,102285.72
2023-04-29T11:56:29.969Z,102284.91
2023-04-29T11:58:35.066Z,102283.03
2023-04-29T12:00:41.265Z,102283.22
2023-04-29T12:02:48.821Z,102288.34
2023-04-29T12:04:54.702Z,102286.00
2023-04-29T12:07:03.331Z,102285.34
2023-04-29T12:09:08.860Z,102293.69
2023-04-29T12:11:14.167Z,102288.47
2023-04-29T12:13:20.036Z,102279.31
2023-04-29T12:15:26.600Z,102276.84
2023-04-29T12:17:31.973Z,102291.28
2023-04-29T12:19:38.862Z,102280.34
2023-04-29T12:21:53.984Z,102285.81
2023-04-29T12:24:07.601Z,102293.72
2023-04-29T12:26:15.359Z,102295.78
2023-04-29T12:28:27.046Z,102292.09
2023-04-29T12:30:32.820Z,102289.19
2023-04-29T12:32:42.195Z,102288.88
2023-04-29T12:34:49.959Z,102294.22
2023-04-29T12:36:54.968Z,102295.69
2023-04-29T12:39:03.032Z,102301.69
2023-04-29T12:41:08.313Z,102305.13
2023-04-29T12:43:15.041Z,102305.34
2023-04-29T12:45:32.402Z,102310.06
2023-04-29T12:47:38.275Z,102304.31
2023-04-29T12:49:45.581Z,102309.03
2023-04-29T12:51:50.913Z,102316.41
2023-04-29T12:53:56.156Z,102315.63
2023-04-29T12:56:03.793Z,102311.72
2023-04-29T12:58:09.876Z,102312.03
2023-04-29T13:00:16.912Z,102310.78
2023-04-29T13:02:24.854Z,102313.69
2023-04-29T13:04:30.475Z,102322.69
2023-04-29T13:06:39.589Z,102318.13
2023-04-29T13:08:44.946Z,102318.91
2023-04-29T13:10:49.958Z,102316.63
2023-04-29T13:12:57.857Z,102318.66
2023-04-29T13:15:02.803Z,102322.50
2023-04-29T13:17:08.134Z,102325.88
2023-04-29T13:21:26.186Z,102316.50
2023-04-29T13:23:31.648Z,102315.47
2023-04-29T13:25:40.347Z,102319.63
2023-04-29T13:27:45.789Z,102318.06
2023-04-29T13:29:54.027Z,102320.63
2023-04-29T13:31:59.165Z,102325.00
2023-04-29T13:34:04.430Z,102323.53
2023-04-29T13:36:10.637Z,102322.13
2023-04-29T13:38:15.987Z,102324.50
2023-04-29T13:40:21.591Z,102333.88
2023-04-29T13:42:27.345Z,102332.91
2023-04-29T13:44:42.487Z,102331.59
2023-04-29T13:46:54.245Z,102343.75
2023-04-29T13:56:15.386Z,102329.78
2023-04-29T13:58:40.045Z,102331.34
2023-04-29T14:02:28.886Z,102336.22
2023-04-29T14:04:34.087Z,102337.28
2023-04-29T14:06:39.252Z,102341.72
2023-04-29T14:08:44.580Z,102335.03
2023-04-29T14:10:50.927Z,102338.81
2023-04-29T14:12:56.191Z,102337.59
2023-04-29T14:15:01.398Z,102336.38
2023-04-29T14:17:06.313Z,102346.38
2023-04-29T14:19:14.351Z,102350.38
2023-04-29T14:21:22.754Z,102348.47
2023-04-29T14:23:27.672Z,102352.31
2023-04-29T14:25:33.947Z,102358.19
2023-04-29T14:27:39.156Z,102347.13
2023-04-29T14:29:44.130Z,102351.63
2023-04-29T14:31:52.279Z,102351.63
2023-04-29T14:33:57.456Z,102353.56
2023-04-29T14:36:05.103Z,102363.03
2023-04-29T14:38:10.692Z,102358.16
2023-04-29T14:40:16.346Z,102352.06
2023-04-29T14:42:21.882Z,102347.38
2023-04-29T14:44:26.885Z,102350.84
2023-04-29T14:46:32.303Z,102354.22
2023-04-29T14:48:40.514Z,102345.63
2023-04-29T14:50:45.986Z,102352.66
2023-04-29T14:52:53.989Z,102360.59
2023-04-29T14:54:58.853Z,102363.91
2023-04-29T14:57:03.883Z,102362.41
2023-04-29T14:59:09.075Z,102357.94
2023-04-29T15:01:14.140Z,102355.28
2023-04-29T15:03:23.209Z,102363.91
2023-04-29T15:05:31.348Z,102364.44
2023-04-29T15:07:36.971Z,102369.75
2023-04-29T15:09:44.977Z,102365.91
2023-04-29T15:11:50.458Z,102371.44
2023-04-29T15:13:55.589Z,102377.31
2023-04-29T15:16:00.613Z,102369.66
2023-04-29T15:18:06.601Z,102375.06
2023-04-29T15:20:13.623Z,102375.59
2023-04-29T15:22:20.312Z,102379.59
2023-04-29T15:24:25.125Z,102372.59
2023-04-29T15:26:32.644Z,102369.34
2023-04-29T15:28:39.603Z,102385.53
2023-04-29T15:30:44.497Z,102378.22
2023-04-29T15:32:52.103Z,102376.75
2023-04-29T15:34:58.394Z,102371.63
2023-04-29T15:37:03.600Z,102379.44
2023-04-29T15:39:11.232Z,102383.00
2023-04-29T15:41:16.486Z,102383.59
2023-04-29T15:43:24.474Z,102381.72
2023-04-29T15:45:29.482Z,102381.16
2023-04-29T15:47:34.524Z,102382.50
2023-04-29T15:49:41.257Z,102383.38
2023-04-29T15:51:46.370Z,102392.41
2023-04-29T15:53:51.879Z,102387.16
2023-04-29T15:55:57.010Z,102391.66
2023-04-29T15:58:01.927Z,102383.72
2023-04-29T16:00:12.712Z,102391.75
2023-04-29T16:02:17.744Z,102390.94
2023-04-29T16:04:26.071Z,102390.81
2023-04-29T16:06:31.309Z,102390.63
2023-04-29T16:08:36.627Z,102391.84
2023-04-29T16:10:41.867Z,102397.25
2023-04-29T16:12:46.791Z,102399.97
2023-04-29T16:14:51.769Z,102402.31
2023-04-29T16:16:59.686Z,102411.94
2023-04-29T16:19:04.662Z,102406.38
2023-04-29T16:21:10.329Z,102411.44
2023-04-29T16:23:15.280Z,102413.53
2023-04-29T16:25:20.697Z,102406.88
2023-04-29T16:27:30.216Z,102413.06
2023-04-29T16:29:35.254Z,102412.19
2023-04-29T16:31:41.614Z,102407.66
2023-04-29T16:33:52.942Z,102411.56
2023-04-29T16:35:58.462Z,102416.09
2023-04-29T16:38:04.523Z,102425.09
2023-04-29T16:40:12.406Z,102413.16
2023-04-29T16:42:17.721Z,102421.84
2023-04-29T16:44:26.853Z,102418.63
2023-04-29T16:46:32.920Z,102419.63
2023-04-29T16:48:38.095Z,102421.41
2023-04-29T16:50:46.262Z,102417.94
2023-04-29T16:52:52.539Z,102421.72
2023-04-29T16:54:57.977Z,102419.63
2023-04-29T16:57:03.400Z,102425.56
2023-04-29T16:59:08.777Z,102421.41
2023-04-29T17:01:14.305Z,102413.75
2023-04-29T17:03:19.489Z,102416.06
2023-04-29T17:05:26.229Z,102412.84
2023-04-29T17:07:34.775Z,102412.53
2023-04-29T17:09:40.717Z,102405.81
2023-04-29T17:11:45.773Z,102411.44
2023-04-29T17:13:50.835Z,102404.22
2023-04-29T17:15:55.890Z,102411.06
2023-04-29T17:18:01.144Z,102411.16
2023-04-29T17:20:07.832Z,102416.16
2023-04-29T17:22:13.244Z,102414.69
2023-04-29T17:24:21.016Z,102414.50
2023-04-29T17:26:26.144Z,102413.63
2023-04-29T17:28:31.395Z,102413.47
2023-04-29T17:30:36.603Z,102418.09
2023-04-29T17:32:44.111Z,102423.16
2023-04-29T17:34:49.588Z,102423.41
2023-04-29T17:36:55.132Z,102420.88
2023-04-29T17:39:00.325Z,102420.88
2023-04-29T17:41:08.155Z,102422.00
2023-04-29T17:43:13.419Z,102417.28
2023-04-29T17:45:21.155Z,102426.34
2023-04-29T17:47:26.693Z,102415.84
2023-04-29T17:49:32.060Z,102427.84
2023-04-29T17:51:38.352Z,102422.63
2023-04-29T17:53:43.442Z,102425.59
2023-04-29T17:55:48.963Z,102421.50
2023-04-29T17:57:58.599Z,102419.53
2023-04-29T18:00:05.042Z,102431.66
2023-04-29T18:02:11.163Z,102430.78
2023-04-29T18:04:16.412Z,102426.63
2023-04-29T18:06:22.355Z,102428.38
2023-04-29T18:08:27.513Z,102428.53
2023-04-29T18:10:32.660Z,102436.53
2023-04-29T18:12:38.002Z,102443.63
2023-04-29T18:14:46.990Z,102429.50
2023-04-29T18:16:53.781Z,102431.25
2023-04-29T18:18:59.116Z,102440.94
2023-04-29T18:21:04.153Z,102435.69
2023-04-29T18:23:09.304Z,102428.78
2023-04-29T18:25:14.523Z,102431.63
2023-04-29T18:27:20.226Z,102433.59
2023-04-29T18:29:25.721Z,102441.47
2023-04-29T18:31:33.930Z,102437.22
2023-04-29T18:33:39.270Z,102443.47
2023-04-29T18:35:44.685Z,102439.06
2023-04-29T18:37:49.819Z,102451.41
2023-04-29T18:39:55.169Z,102445.50
2023-04-29T18:42:01.649Z,102454.31
2023-04-29T18:44:08.382Z,102452.53
2023-04-29T18:46:13.666Z,102449.13
2023-04-29T18:48:23.933Z,102443.97
2023-04-29T18:50:32.325Z,102443.19
2023-04-29T18:52:38.285Z,102440.66
2023-04-29T18:54:43.342Z,102446.56
2023-04-29T18:56:51.304Z,102451.94
2023-04-29T18:58:56.741Z,102454.75
2023-04-29T19:01:03.427Z,102444.34
2023-04-29T19:03:08.788Z,102451.41
2023-04-29T19:05:16.868Z,102453.09
2023-04-29T19:07:24.758Z,102460.13
2023-04-29T19:09:32.139Z,102462.06
2023-04-29T19:11:38.206Z,102460.47
2023-04-29T19:13:43.360Z,102469.22
2023-04-29T19:15:50.917Z,102478.88
2023-04-29T19:17:56.348Z,102482.53
2023-04-29T19:20:01.496Z,102484.38
2023-04-29T19:22:09.501Z,102486.22
2023-04-29T19:24:14.433Z,102488.94
2023-04-29T19:26:21.830Z,102489.03
2023-04-29T19:28:27.245Z,102501.31
2023-04-29T19:30:33.129Z,102496.03
2023-04-29T19:32:40.006Z,102494.25
2023-04-29T19:34:45.042Z,102495.22
2023-04-29T19:36:50.772Z,102498.72
2023-04-29T19:38:58.638Z,102501.44
2023-04-29T19:41:03.694Z,102503.22
2023-04-29T19:43:09.468Z,102503.28
2023-04-29T19:45:15.456Z,102505.09
2023-04-29T19:47:24.709Z,102503.41
2023-04-29T19:49:30.082Z,102500.69
2023-04-29T19:51:37.311Z,102500.69
2023-04-29T19:53:42.701Z,102503.31
2023-04-29T19:55:52.013Z,102511.16
2023-04-29T19:57:57.676Z,102509.53
2023-04-29T20:00:02.916Z,102517.47
2023-04-29T20:02:09.483Z,102518.34
2023-04-29T20:04:14.679Z,102517.56
2023-04-29T20:06:22.160Z,102518.53
2023-04-29T20:08:27.771Z,102523.91
2023-04-29T20:10:33.251Z,102528.31
2023-04-29T20:12:42.148Z,102523.13
2023-04-29T20:14:47.711Z,102518.78
2023-04-29T20:16:54.350Z,102512.72
2023-04-29T20:18:59.592Z,102519.75
2023-04-29T20:21:05.559Z,102525.06
2023-04-29T20:23:10.579Z,102527.69
2023-04-29T20:25:15.688Z,102533.81
2023-04-29T20:27:23.177Z,102532.03
2023-04-29T20:29:30.840Z,102532.06
2023-04-29T20:31:35.934Z,102533.00
2023-04-29T20:33:42.102Z,102535.66
2023-04-29T20:35:47.396Z,102532.16
2023-04-29T20:37:52.731Z,102534.84
2023-04-29T20:40:00.543Z,102537.47
2023-04-29T20:42:06.402Z,102540.06
2023-04-29T20:44:12.913Z,102536.63
2023-04-29T20:46:22.229Z,102536.66
2023-04-29T20:48:30.426Z,102546.25
2023-04-29T20:50:35.890Z,102547.19
2023-04-29T20:52:44.200Z,102538.47
2023-04-29T20:54:52.037Z,102549.00
2023-04-29T20:56:57.554Z,102545.50
2023-04-29T20:59:06.712Z,102549.91
2023-04-29T21:01:12.984Z,102558.66
2023-04-29T21:03:22.577Z,102548.19
2023-04-29T21:05:27.881Z,102555.19
2023-04-29T21:07:33.126Z,102549.94
2023-04-29T21:09:39.525Z,102557.88
2023-04-29T21:11:44.742Z,102561.38
2023-04-29T21:13:51.270Z,102553.53
2023-04-29T21:15:56.567Z,102552.66
2023-04-29T21:18:04.654Z,102554.44
2023-04-29T21:20:13.986Z,102552.69
2023-04-29T21:22:19.809Z,102551.78
2023-04-29T21:24:25.002Z,102552.66
2023-04-29T21:26:30.079Z,102556.19
2023-04-29T21:28:35.143Z,102555.28
2023-04-29T21:30:41.183Z,102558.75
2023-04-29T21:32:46.433Z,102555.28
2023-04-29T21:34:52.044Z,102561.38
2023-04-29T21:37:00.116Z,102557.91
2023-04-29T21:39:06.478Z,102560.53
2023-04-29T21:41:22.908Z,102561.44
2023-04-29T21:43:30.243Z,102564.91
2023-04-29T21:45:35.629Z,102567.53
2023-04-29T21:47:46.128Z,102566.69
2023-04-29T21:49:52.065Z,102566.69
2023-04-29T21:52:02.119Z,102561.44
2023-04-29T21:54:08.854Z,102564.94
2023-04-29T21:56:14.069Z,102564.09
2023-04-29T21:58:21.615Z,102567.59
2023-04-29T22:00:34.128Z,102572.84
2023-04-29T22:02:43.716Z,102572.00
2023-04-29T22:04:51.674Z,102576.38
2023-04-29T22:06:59.656Z,102567.66
2023-04-29T22:09:05.426Z,102572.00
2023-04-29T22:11:10.865Z,102572.00
2023-04-29T22:13:16.210Z,102566.75
2023-04-29T22:15:28.879Z,102574.63
2023-04-29T22:17:34.820Z,102577.22
2023-04-29T22:19:40.105Z,102572.88
2023-04-29T22:21:47.614Z,102579.00
2023-04-29T22:23:55.595Z,102576.41
2023-04-29T22:26:03.156Z,102569.38
2023-04-29T22:28:21.127Z,102574.63
2023-04-29T22:30:27.383Z,102570.28
2023-04-29T22:32:33.127Z,102573.75
2023-04-29T22:34:39.160Z,102576.41
2023-04-29T22:36:44.327Z,102578.13
2023-04-29T22:38:49.846Z,102572.91
2023-04-29T22:40:57.944Z,102571.19
2023-04-29T22:43:03.913Z,102575.50
2023-04-29T22:45:11.312Z,102579.03
2023-04-29T22:47:17.804Z,102574.63
2023-04-29T22:49:23.527Z,102577.28
2023-04-29T22:51:32.545Z,102582.50
2023-04-29T22:53:38.722Z,102582.50
2023-04-29T22:55:44.133Z,102580.78
2023-04-29T22:57:56.678Z,102579.91
2023-04-29T23:00:01.968Z,102582.50
2023-04-29T23:02:08.243Z,102576.41
2023-04-29T23:04:13.496Z,102580.75
2023-04-29T23:06:21.739Z,102583.38
2023-04-29T23:08:26.938Z,102575.53
2023-04-29T23:10:32.092Z,102583.38
2023-04-29T23:12:37.218Z,102584.25
2023-04-29T23:14:47.445Z,102584.25
2023-04-29T23:16:54.840Z,102587.78
2023-04-29T23:19:00.504Z,102586.03
2023-04-29T23:21:08.060Z,102587.75
2023-04-29T23:23:17.445Z,102592.13
2023-04-29T23:25:27.135Z,102593.88
2023-04-29T23:27:32.837Z,102593.00
2023-04-29T23:29:38.633Z,102597.34
2023-04-29T23:31:47.261Z,102595.63
2023-04-29T23:33:54.409Z,102599.09
2023-04-29T23:36:00.025Z,102591.25
2023-04-29T23:38:05.791Z,102604.34
2023-04-29T23:40:12.262Z,102598.22
2023-04-29T23:42:17.618Z,102596.50
2023-04-29T23:44:23.016Z,102594.72
2023-04-29T23:46:28.174Z,102597.34
2023-04-29T23:48:39.065Z,102594.72
2023-04-29T23:50:44.277Z,102611.28
2023-04-29T23:52:50.409Z,102602.56
2023-04-29T23:54:55.445Z,102609.53
2023-04-29T23:57:00.532Z,102601.69
2023-04-29T23:59:05.660Z,102599.06
